フェニックス の空港の天気 - METARとTAF

フェニックス・スカイハーバー国際空港 ( KPHX / PHX ) - アメリカ アリゾナ州フェニックス
飛行場実況気象(Metar)
観測時間01/23 00:51 MST (01/23 07:51 UTC)
風向・風速東北東 2m/s
視程10km以上
天気現象
少しの雲 雲底高度 7620m
気温8.3℃
湿度40%
気圧1019.7hPa
METARKPHX 230751Z 07003KT 10SM FEW250 08/M04 A3012 RMK AO2 SLP197 T00831044
過去の天気等 Google飛行場航空写真 Wunderground天気予報

過去48時間のMETAR

飛行場予報(TAF)
発表時間: 1/22 22:24 MST (1/23 05:24 UTC)
予報対象時間: 22日23時 MST ~ 24日5時 MST
風向・風速北北西 2m/s
視程10km以上
少しの雲 雲底高度 7,620m
23日0時 MST から
風向・風速東 3m/s
視程10km以上
なし
23日16時 MST から
風向・風速北 2m/s
視程10km以上
なし
23日21時 MST から
風向・風速東 3m/s
視程10km以上
なし
KPHX 230524Z 2306/2412 34004KT P6SM FEW250
FM230700 10006KT P6SM SKC
FM232300 35004KT P6SM SKC
FM240400 08005KT P6SM SKC